sensor_id;sensor_type;location;lat;lon;timestamp;P1;durP1;ratioP1;P2;durP2;ratioP2
53674;SDS011;39574;50.534;8.500;2022-08-01T00:01:42;2.4;;;1.2;;
53674;SDS011;39574;50.534;8.500;2022-08-01T00:06:42;2.3;;;1.2;;
53674;SDS011;39574;50.534;8.500;2022-08-01T00:11:41;2.1;;;1.2;;
53674;SDS011;39574;50.534;8.500;2022-08-01T00:16:41;3.6;;;1.7;;
53674;SDS011;39574;50.534;8.500;2022-08-01T00:21:41;3.6;;;1.8;;
53674;SDS011;39574;50.534;8.500;2022-08-01T00:26:40;3.5;;;1.5;;
53674;SDS011;39574;50.534;8.500;2022-08-01T00:31:40;3.1;;;1.4;;
53674;SDS011;39574;50.534;8.500;2022-08-01T00:36:39;2.6;;;1.1;;
53674;SDS011;39574;50.534;8.500;2022-08-01T00:41:39;2.5;;;1.2;;
53674;SDS011;39574;50.534;8.500;2022-08-01T00:46:38;2.8;;;1.2;;
53674;SDS011;39574;50.534;8.500;2022-08-01T00:51:38;2.9;;;1.3;;
53674;SDS011;39574;50.534;8.500;2022-08-01T00:56:38;2.6;;;1.2;;
53674;SDS011;39574;50.534;8.500;2022-08-01T01:01:37;2.4;;;1.2;;
53674;SDS011;39574;50.534;8.500;2022-08-01T01:06:41;2.5;;;1.2;;
53674;SDS011;39574;50.534;8.500;2022-08-01T01:11:39;2.5;;;1.3;;
53674;SDS011;39574;50.534;8.500;2022-08-01T01:16:36;2.9;;;1.2;;
53674;SDS011;39574;50.534;8.500;2022-08-01T01:21:39;3.0;;;1.3;;
53674;SDS011;39574;50.534;8.500;2022-08-01T01:26:36;2.9;;;1.3;;
53674;SDS011;39574;50.534;8.500;2022-08-01T01:31:37;3.6;;;1.3;;
53674;SDS011;39574;50.534;8.500;2022-08-01T01:36:34;3.3;;;1.4;;
53674;SDS011;39574;50.534;8.500;2022-08-01T01:41:34;3.2;;;1.4;;
53674;SDS011;39574;50.534;8.500;2022-08-01T01:46:34;2.7;;;1.4;;
53674;SDS011;39574;50.534;8.500;2022-08-01T01:51:33;2.8;;;1.5;;
53674;SDS011;39574;50.534;8.500;2022-08-01T01:56:33;3.2;;;1.8;;
53674;SDS011;39574;50.534;8.500;2022-08-01T02:01:32;3.3;;;1.9;;
53674;SDS011;39574;50.534;8.500;2022-08-01T02:06:32;3.6;;;1.9;;
53674;SDS011;39574;50.534;8.500;2022-08-01T02:11:31;3.5;;;2.0;;
53674;SDS011;39574;50.534;8.500;2022-08-01T02:16:31;3.9;;;2.2;;
53674;SDS011;39574;50.534;8.500;2022-08-01T02:21:32;4.3;;;2.3;;
53674;SDS011;39574;50.534;8.500;2022-08-01T02:26:30;4.4;;;2.4;;
53674;SDS011;39574;50.534;8.500;2022-08-01T02:31:30;4.2;;;2.5;;
53674;SDS011;39574;50.534;8.500;2022-08-01T02:36:30;4.0;;;2.5;;
53674;SDS011;39574;50.534;8.500;2022-08-01T02:41:28;3.9;;;2.5;;
53674;SDS011;39574;50.534;8.500;2022-08-01T02:46:29;3.8;;;2.4;;
53674;SDS011;39574;50.534;8.500;2022-08-01T02:51:28;3.7;;;2.5;;
53674;SDS011;39574;50.534;8.500;2022-08-01T02:56:27;4.0;;;2.4;;
53674;SDS011;39574;50.534;8.500;2022-08-01T03:01:27;4.2;;;2.5;;
53674;SDS011;39574;50.534;8.500;2022-08-01T03:06:26;3.7;;;2.4;;
53674;SDS011;39574;50.534;8.500;2022-08-01T03:11:26;3.5;;;2.4;;
53674;SDS011;39574;50.534;8.500;2022-08-01T03:16:25;3.4;;;2.3;;
53674;SDS011;39574;50.534;8.500;2022-08-01T03:21:25;3.3;;;2.1;;
53674;SDS011;39574;50.534;8.500;2022-08-01T03:26:25;3.4;;;2.0;;
53674;SDS011;39574;50.534;8.500;2022-08-01T03:31:24;3.3;;;1.9;;
53674;SDS011;39574;50.534;8.500;2022-08-01T03:36:25;3.2;;;1.9;;
53674;SDS011;39574;50.534;8.500;2022-08-01T03:41:24;3.6;;;2.0;;
53674;SDS011;39574;50.534;8.500;2022-08-01T03:46:25;3.6;;;2.1;;
53674;SDS011;39574;50.534;8.500;2022-08-01T03:51:22;3.6;;;2.1;;
53674;SDS011;39574;50.534;8.500;2022-08-01T03:56:21;4.0;;;2.5;;
53674;SDS011;39574;50.534;8.500;2022-08-01T04:01:21;4.6;;;2.8;;
53674;SDS011;39574;50.534;8.500;2022-08-01T04:06:20;5.0;;;3.4;;
53674;SDS011;39574;50.534;8.500;2022-08-01T04:11:20;5.6;;;3.8;;
53674;SDS011;39574;50.534;8.500;2022-08-01T04:16:20;5.5;;;3.9;;
53674;SDS011;39574;50.534;8.500;2022-08-01T04:21:20;5.6;;;4.1;;
53674;SDS011;39574;50.534;8.500;2022-08-01T04:26:18;5.8;;;4.1;;
53674;SDS011;39574;50.534;8.500;2022-08-01T04:31:18;5.8;;;4.1;;
53674;SDS011;39574;50.534;8.500;2022-08-01T04:36:18;5.8;;;4.2;;
53674;SDS011;39574;50.534;8.500;2022-08-01T04:41:17;5.7;;;4.5;;
53674;SDS011;39574;50.534;8.500;2022-08-01T04:46:16;5.6;;;4.6;;
53674;SDS011;39574;50.534;8.500;2022-08-01T04:51:16;6.1;;;5.3;;
53674;SDS011;39574;50.534;8.500;2022-08-01T04:56:15;6.9;;;5.5;;
53674;SDS011;39574;50.534;8.500;2022-08-01T05:01:15;7.5;;;5.9;;
53674;SDS011;39574;50.534;8.500;2022-08-01T05:06:14;7.3;;;5.8;;
53674;SDS011;39574;50.534;8.500;2022-08-01T05:11:14;6.8;;;5.6;;
53674;SDS011;39574;50.534;8.500;2022-08-01T05:16:13;6.8;;;5.7;;
53674;SDS011;39574;50.534;8.500;2022-08-01T05:21:13;7.0;;;5.9;;
53674;SDS011;39574;50.534;8.500;2022-08-01T05:26:12;7.9;;;6.3;;
53674;SDS011;39574;50.534;8.500;2022-08-01T05:31:12;8.1;;;6.6;;
53674;SDS011;39574;50.534;8.500;2022-08-01T05:36:11;8.3;;;7.0;;
53674;SDS011;39574;50.534;8.500;2022-08-01T05:41:11;8.4;;;7.1;;
53674;SDS011;39574;50.534;8.500;2022-08-01T05:46:10;8.2;;;6.9;;
53674;SDS011;39574;50.534;8.500;2022-08-01T05:51:10;7.9;;;6.6;;
53674;SDS011;39574;50.534;8.500;2022-08-01T05:56:09;7.7;;;6.2;;
53674;SDS011;39574;50.534;8.500;2022-08-01T06:01:09;7.2;;;6.1;;
53674;SDS011;39574;50.534;8.500;2022-08-01T06:06:08;7.7;;;6.3;;
53674;SDS011;39574;50.534;8.500;2022-08-01T06:11:07;7.7;;;6.0;;
53674;SDS011;39574;50.534;8.500;2022-08-01T06:16:07;7.2;;;5.7;;
53674;SDS011;39574;50.534;8.500;2022-08-01T06:21:06;7.1;;;5.8;;
53674;SDS011;39574;50.534;8.500;2022-08-01T06:26:06;5.9;;;5.0;;
53674;SDS011;39574;50.534;8.500;2022-08-01T06:31:05;7.0;;;5.4;;
53674;SDS011;39574;50.534;8.500;2022-08-01T06:36:05;6.9;;;5.4;;
53674;SDS011;39574;50.534;8.500;2022-08-01T06:41:06;7.0;;;5.7;;
53674;SDS011;39574;50.534;8.500;2022-08-01T06:46:04;7.2;;;6.1;;
53674;SDS011;39574;50.534;8.500;2022-08-01T06:51:04;7.9;;;6.6;;
53674;SDS011;39574;50.534;8.500;2022-08-01T06:56:03;8.7;;;6.8;;
53674;SDS011;39574;50.534;8.500;2022-08-01T07:01:03;9.8;;;7.4;;
53674;SDS011;39574;50.534;8.500;2022-08-01T07:06:02;10.6;;;8.2;;
53674;SDS011;39574;50.534;8.500;2022-08-01T07:11:02;10.3;;;8.1;;
53674;SDS011;39574;50.534;8.500;2022-08-01T07:16:01;10.4;;;8.6;;
53674;SDS011;39574;50.534;8.500;2022-08-01T07:21:01;9.6;;;8.3;;
53674;SDS011;39574;50.534;8.500;2022-08-01T07:26:00;9.4;;;8.2;;
53674;SDS011;39574;50.534;8.500;2022-08-01T07:31:00;9.2;;;7.8;;
53674;SDS011;39574;50.534;8.500;2022-08-01T07:35:59;9.3;;;7.7;;
53674;SDS011;39574;50.534;8.500;2022-08-01T07:40:59;10.0;;;7.9;;
53674;SDS011;39574;50.534;8.500;2022-08-01T07:45:59;10.1;;;8.1;;
53674;SDS011;39574;50.534;8.500;2022-08-01T07:50:58;10.4;;;8.0;;
53674;SDS011;39574;50.534;8.500;2022-08-01T07:55:58;10.4;;;8.3;;
53674;SDS011;39574;50.534;8.500;2022-08-01T08:00:57;9.8;;;8.2;;
53674;SDS011;39574;50.534;8.500;2022-08-01T08:05:57;9.8;;;7.9;;
53674;SDS011;39574;50.534;8.500;2022-08-01T08:10:57;9.4;;;7.8;;
53674;SDS011;39574;50.534;8.500;2022-08-01T08:15:56;9.9;;;7.9;;
53674;SDS011;39574;50.534;8.500;2022-08-01T08:20:56;9.5;;;7.6;;
53674;SDS011;39574;50.534;8.500;2022-08-01T08:25:55;9.5;;;7.4;;
53674;SDS011;39574;50.534;8.500;2022-08-01T08:30:55;9.2;;;7.3;;
53674;SDS011;39574;50.534;8.500;2022-08-01T08:35:55;8.6;;;6.9;;
53674;SDS011;39574;50.534;8.500;2022-08-01T08:40:54;7.7;;;6.3;;
53674;SDS011;39574;50.534;8.500;2022-08-01T08:45:54;7.9;;;6.0;;
53674;SDS011;39574;50.534;8.500;2022-08-01T08:50:54;7.0;;;5.5;;
53674;SDS011;39574;50.534;8.500;2022-08-01T08:55:54;6.6;;;5.4;;
53674;SDS011;39574;50.534;8.500;2022-08-01T09:00:53;6.6;;;5.1;;
53674;SDS011;39574;50.534;8.500;2022-08-01T09:05:53;6.2;;;5.1;;
53674;SDS011;39574;50.534;8.500;2022-08-01T09:10:52;6.0;;;5.0;;
53674;SDS011;39574;50.534;8.500;2022-08-01T09:15:53;6.6;;;5.3;;
53674;SDS011;39574;50.534;8.500;2022-08-01T09:20:56;6.5;;;5.3;;
53674;SDS011;39574;50.534;8.500;2022-08-01T09:25:52;6.2;;;5.1;;
53674;SDS011;39574;50.534;8.500;2022-08-01T09:30:51;6.1;;;5.1;;
53674;SDS011;39574;50.534;8.500;2022-08-01T09:35:53;6.4;;;4.9;;
53674;SDS011;39574;50.534;8.500;2022-08-01T09:40:51;6.4;;;4.8;;
53674;SDS011;39574;50.534;8.500;2022-08-01T09:45:51;5.9;;;4.5;;
53674;SDS011;39574;50.534;8.500;2022-08-01T09:50:51;6.0;;;4.6;;
53674;SDS011;39574;50.534;8.500;2022-08-01T09:55:50;6.3;;;4.7;;
53674;SDS011;39574;50.534;8.500;2022-08-01T10:00:57;6.5;;;4.9;;
53674;SDS011;39574;50.534;8.500;2022-08-01T10:05:50;7.2;;;5.1;;
53674;SDS011;39574;50.534;8.500;2022-08-01T10:11:04;6.5;;;5.0;;
53674;SDS011;39574;50.534;8.500;2022-08-01T10:15:50;6.5;;;5.4;;
53674;SDS011;39574;50.534;8.500;2022-08-01T10:20:49;6.9;;;5.4;;
53674;SDS011;39574;50.534;8.500;2022-08-01T10:25:49;6.8;;;5.4;;
53674;SDS011;39574;50.534;8.500;2022-08-01T10:30:49;6.5;;;5.2;;
53674;SDS011;39574;50.534;8.500;2022-08-01T10:35:48;6.2;;;5.1;;
53674;SDS011;39574;50.534;8.500;2022-08-01T10:40:48;6.0;;;5.2;;
53674;SDS011;39574;50.534;8.500;2022-08-01T10:45:48;6.2;;;5.4;;
53674;SDS011;39574;50.534;8.500;2022-08-01T10:50:52;6.1;;;5.3;;
53674;SDS011;39574;50.534;8.500;2022-08-01T10:55:49;6.3;;;5.3;;
53674;SDS011;39574;50.534;8.500;2022-08-01T11:00:56;6.4;;;5.4;;
53674;SDS011;39574;50.534;8.500;2022-08-01T11:05:47;6.7;;;5.2;;
53674;SDS011;39574;50.534;8.500;2022-08-01T11:10:47;6.3;;;5.0;;
53674;SDS011;39574;50.534;8.500;2022-08-01T11:15:47;5.7;;;4.7;;
53674;SDS011;39574;50.534;8.500;2022-08-01T11:20:54;4.8;;;4.0;;
53674;SDS011;39574;50.534;8.500;2022-08-01T11:26:18;4.3;;;3.6;;
53674;SDS011;39574;50.534;8.500;2022-08-01T11:30:47;4.2;;;3.4;;
53674;SDS011;39574;50.534;8.500;2022-08-01T11:36:15;4.1;;;3.2;;
53674;SDS011;39574;50.534;8.500;2022-08-01T11:40:46;3.7;;;3.0;;
53674;SDS011;39574;50.534;8.500;2022-08-01T11:45:47;3.7;;;3.0;;
53674;SDS011;39574;50.534;8.500;2022-08-01T11:50:46;3.8;;;2.9;;
53674;SDS011;39574;50.534;8.500;2022-08-01T11:55:47;3.6;;;2.7;;
53674;SDS011;39574;50.534;8.500;2022-08-01T12:00:49;3.6;;;2.7;;
53674;SDS011;39574;50.534;8.500;2022-08-01T12:05:46;3.5;;;2.5;;
53674;SDS011;39574;50.534;8.500;2022-08-01T12:10:49;3.3;;;2.5;;
53674;SDS011;39574;50.534;8.500;2022-08-01T12:15:46;3.2;;;2.4;;
53674;SDS011;39574;50.534;8.500;2022-08-01T12:20:45;3.3;;;2.4;;
53674;SDS011;39574;50.534;8.500;2022-08-01T12:25:50;3.2;;;2.5;;
53674;SDS011;39574;50.534;8.500;2022-08-01T12:30:46;3.1;;;2.6;;
53674;SDS011;39574;50.534;8.500;2022-08-01T12:35:45;3.8;;;2.6;;
53674;SDS011;39574;50.534;8.500;2022-08-01T12:40:45;4.2;;;2.7;;
53674;SDS011;39574;50.534;8.500;2022-08-01T12:45:45;4.3;;;2.8;;
53674;SDS011;39574;50.534;8.500;2022-08-01T12:50:45;4.0;;;2.9;;
53674;SDS011;39574;50.534;8.500;2022-08-01T12:55:44;3.8;;;2.9;;
53674;SDS011;39574;50.534;8.500;2022-08-01T13:00:45;3.6;;;2.9;;
53674;SDS011;39574;50.534;8.500;2022-08-01T13:05:44;3.4;;;2.9;;
53674;SDS011;39574;50.534;8.500;2022-08-01T13:10:43;3.3;;;2.8;;
53674;SDS011;39574;50.534;8.500;2022-08-01T13:15:43;3.5;;;2.8;;
53674;SDS011;39574;50.534;8.500;2022-08-01T13:20:43;4.1;;;2.8;;
53674;SDS011;39574;50.534;8.500;2022-08-01T13:25:47;4.2;;;2.8;;
53674;SDS011;39574;50.534;8.500;2022-08-01T13:30:51;4.2;;;2.9;;
53674;SDS011;39574;50.534;8.500;2022-08-01T13:35:43;4.1;;;3.1;;
53674;SDS011;39574;50.534;8.500;2022-08-01T13:40:43;4.0;;;3.1;;
53674;SDS011;39574;50.534;8.500;2022-08-01T13:45:43;4.0;;;3.3;;
53674;SDS011;39574;50.534;8.500;2022-08-01T13:50:43;3.8;;;3.2;;
53674;SDS011;39574;50.534;8.500;2022-08-01T13:55:42;3.9;;;3.2;;
53674;SDS011;39574;50.534;8.500;2022-08-01T14:00:42;3.5;;;3.0;;
53674;SDS011;39574;50.534;8.500;2022-08-01T14:05:42;3.8;;;3.1;;
53674;SDS011;39574;50.534;8.500;2022-08-01T14:10:42;4.0;;;3.0;;
53674;SDS011;39574;50.534;8.500;2022-08-01T14:15:42;3.8;;;3.1;;
53674;SDS011;39574;50.534;8.500;2022-08-01T14:20:42;4.2;;;3.1;;
53674;SDS011;39574;50.534;8.500;2022-08-01T14:25:42;4.0;;;3.1;;
53674;SDS011;39574;50.534;8.500;2022-08-01T14:30:42;3.8;;;3.0;;
53674;SDS011;39574;50.534;8.500;2022-08-01T14:35:42;4.2;;;3.2;;
53674;SDS011;39574;50.534;8.500;2022-08-01T14:40:42;4.0;;;3.3;;
53674;SDS011;39574;50.534;8.500;2022-08-01T14:45:42;4.3;;;3.3;;
53674;SDS011;39574;50.534;8.500;2022-08-01T14:50:41;4.2;;;3.2;;
53674;SDS011;39574;50.534;8.500;2022-08-01T14:55:41;4.0;;;3.3;;
53674;SDS011;39574;50.534;8.500;2022-08-01T15:00:41;3.7;;;3.1;;
53674;SDS011;39574;50.534;8.500;2022-08-01T15:05:41;4.0;;;3.2;;
53674;SDS011;39574;50.534;8.500;2022-08-01T15:10:42;4.2;;;3.2;;
53674;SDS011;39574;50.534;8.500;2022-08-01T15:15:41;5.4;;;3.1;;
53674;SDS011;39574;50.534;8.500;2022-08-01T15:20:41;5.9;;;3.3;;
53674;SDS011;39574;50.534;8.500;2022-08-01T15:25:41;5.3;;;3.3;;
53674;SDS011;39574;50.534;8.500;2022-08-01T15:30:41;4.7;;;3.3;;
53674;SDS011;39574;50.534;8.500;2022-08-01T15:35:41;4.5;;;3.6;;
53674;SDS011;39574;50.534;8.500;2022-08-01T15:40:41;3.9;;;3.4;;
53674;SDS011;39574;50.534;8.500;2022-08-01T15:45:41;4.2;;;3.3;;
53674;SDS011;39574;50.534;8.500;2022-08-01T15:50:41;4.0;;;3.2;;
53674;SDS011;39574;50.534;8.500;2022-08-01T15:55:41;3.9;;;3.1;;
53674;SDS011;39574;50.534;8.500;2022-08-01T16:00:40;3.7;;;3.0;;
53674;SDS011;39574;50.534;8.500;2022-08-01T16:05:40;3.5;;;3.0;;
53674;SDS011;39574;50.534;8.500;2022-08-01T16:10:40;3.8;;;3.0;;
53674;SDS011;39574;50.534;8.500;2022-08-01T16:15:40;3.9;;;3.0;;
53674;SDS011;39574;50.534;8.500;2022-08-01T16:20:40;3.5;;;2.8;;
53674;SDS011;39574;50.534;8.500;2022-08-01T16:25:40;3.3;;;2.6;;
53674;SDS011;39574;50.534;8.500;2022-08-01T16:30:39;3.2;;;2.6;;
53674;SDS011;39574;50.534;8.500;2022-08-01T16:35:39;3.5;;;2.6;;
53674;SDS011;39574;50.534;8.500;2022-08-01T16:40:39;3.6;;;2.6;;
53674;SDS011;39574;50.534;8.500;2022-08-01T16:45:39;4.3;;;2.5;;
53674;SDS011;39574;50.534;8.500;2022-08-01T16:50:39;4.2;;;2.5;;
53674;SDS011;39574;50.534;8.500;2022-08-01T16:55:39;3.9;;;2.4;;
53674;SDS011;39574;50.534;8.500;2022-08-01T17:00:39;3.7;;;2.3;;
53674;SDS011;39574;50.534;8.500;2022-08-01T17:05:39;4.3;;;2.3;;
53674;SDS011;39574;50.534;8.500;2022-08-01T17:10:38;3.9;;;2.2;;
53674;SDS011;39574;50.534;8.500;2022-08-01T17:15:38;3.6;;;2.3;;
53674;SDS011;39574;50.534;8.500;2022-08-01T17:20:38;3.2;;;2.2;;
53674;SDS011;39574;50.534;8.500;2022-08-01T17:25:38;3.3;;;2.1;;
53674;SDS011;39574;50.534;8.500;2022-08-01T17:30:38;3.4;;;2.2;;
53674;SDS011;39574;50.534;8.500;2022-08-01T17:35:38;3.0;;;2.1;;
53674;SDS011;39574;50.534;8.500;2022-08-01T17:40:37;2.8;;;2.0;;
53674;SDS011;39574;50.534;8.500;2022-08-01T17:45:37;2.8;;;1.8;;
53674;SDS011;39574;50.534;8.500;2022-08-01T17:50:37;3.6;;;1.9;;
53674;SDS011;39574;50.534;8.500;2022-08-01T17:55:37;3.2;;;1.7;;
53674;SDS011;39574;50.534;8.500;2022-08-01T18:00:37;2.8;;;1.7;;
53674;SDS011;39574;50.534;8.500;2022-08-01T18:05:36;2.7;;;1.7;;
53674;SDS011;39574;50.534;8.500;2022-08-01T18:10:36;3.0;;;1.8;;
53674;SDS011;39574;50.534;8.500;2022-08-01T18:15:36;3.1;;;1.8;;
53674;SDS011;39574;50.534;8.500;2022-08-01T18:20:36;3.1;;;1.7;;
53674;SDS011;39574;50.534;8.500;2022-08-01T18:25:35;3.0;;;1.7;;
53674;SDS011;39574;50.534;8.500;2022-08-01T18:30:35;2.9;;;1.7;;
53674;SDS011;39574;50.534;8.500;2022-08-01T18:35:35;9.4;;;7.1;;
53674;SDS011;39574;50.534;8.500;2022-08-01T18:40:35;7.9;;;5.9;;
53674;SDS011;39574;50.534;8.500;2022-08-01T18:45:34;6.3;;;4.4;;
53674;SDS011;39574;50.534;8.500;2022-08-01T18:50:34;6.3;;;4.8;;
53674;SDS011;39574;50.534;8.500;2022-08-01T18:55:34;4.0;;;3.0;;
53674;SDS011;39574;50.534;8.500;2022-08-01T19:00:34;3.8;;;2.6;;
53674;SDS011;39574;50.534;8.500;2022-08-01T19:10:35;3.3;;;2.2;;
53674;SDS011;39574;50.534;8.500;2022-08-01T19:15:33;2.4;;;1.6;;
53674;SDS011;39574;50.534;8.500;2022-08-01T19:20:32;2.4;;;1.6;;
53674;SDS011;39574;50.534;8.500;2022-08-01T19:25:32;2.2;;;1.5;;
53674;SDS011;39574;50.534;8.500;2022-08-01T19:30:32;2.3;;;1.5;;
53674;SDS011;39574;50.534;8.500;2022-08-01T19:40:31;2.0;;;1.4;;
53674;SDS011;39574;50.534;8.500;2022-08-01T19:45:31;2.3;;;1.4;;
53674;SDS011;39574;50.534;8.500;2022-08-01T19:50:31;2.3;;;1.4;;
53674;SDS011;39574;50.534;8.500;2022-08-01T19:55:30;2.9;;;1.4;;
53674;SDS011;39574;50.534;8.500;2022-08-01T20:05:30;2.5;;;1.3;;
53674;SDS011;39574;50.534;8.500;2022-08-01T20:10:30;2.6;;;1.4;;
53674;SDS011;39574;50.534;8.500;2022-08-01T20:15:29;2.4;;;1.4;;
53674;SDS011;39574;50.534;8.500;2022-08-01T20:20:29;2.7;;;1.8;;
53674;SDS011;39574;50.534;8.500;2022-08-01T20:25:29;3.9;;;2.5;;
53674;SDS011;39574;50.534;8.500;2022-08-01T20:30:28;3.8;;;2.5;;
53674;SDS011;39574;50.534;8.500;2022-08-01T20:40:33;3.2;;;2.1;;
53674;SDS011;39574;50.534;8.500;2022-08-01T20:45:28;2.5;;;1.7;;
53674;SDS011;39574;50.534;8.500;2022-08-01T20:50:27;2.3;;;1.5;;
53674;SDS011;39574;50.534;8.500;2022-08-01T20:55:27;2.7;;;1.5;;
53674;SDS011;39574;50.534;8.500;2022-08-01T21:05:30;2.7;;;1.4;;
53674;SDS011;39574;50.534;8.500;2022-08-01T21:10:27;2.4;;;1.4;;
53674;SDS011;39574;50.534;8.500;2022-08-01T21:15:28;2.3;;;1.4;;
53674;SDS011;39574;50.534;8.500;2022-08-01T21:20:25;2.0;;;1.5;;
53674;SDS011;39574;50.534;8.500;2022-08-01T21:25:25;1.8;;;1.4;;
53674;SDS011;39574;50.534;8.500;2022-08-01T21:30:24;2.0;;;1.4;;
53674;SDS011;39574;50.534;8.500;2022-08-01T21:35:24;2.0;;;1.3;;
53674;SDS011;39574;50.534;8.500;2022-08-01T21:40:24;1.9;;;1.2;;
53674;SDS011;39574;50.534;8.500;2022-08-01T21:45:24;1.9;;;1.2;;
53674;SDS011;39574;50.534;8.500;2022-08-01T21:50:23;2.0;;;1.3;;
53674;SDS011;39574;50.534;8.500;2022-08-01T21:55:23;2.2;;;1.5;;
53674;SDS011;39574;50.534;8.500;2022-08-01T22:00:22;2.1;;;1.6;;
53674;SDS011;39574;50.534;8.500;2022-08-01T22:05:24;2.1;;;1.6;;
53674;SDS011;39574;50.534;8.500;2022-08-01T22:10:21;1.9;;;1.5;;
53674;SDS011;39574;50.534;8.500;2022-08-01T22:15:22;2.0;;;1.4;;
53674;SDS011;39574;50.534;8.500;2022-08-01T22:20:21;2.3;;;1.4;;
53674;SDS011;39574;50.534;8.500;2022-08-01T22:25:21;2.5;;;1.5;;
53674;SDS011;39574;50.534;8.500;2022-08-01T22:30:20;2.9;;;2.0;;
53674;SDS011;39574;50.534;8.500;2022-08-01T22:35:19;2.6;;;1.9;;
53674;SDS011;39574;50.534;8.500;2022-08-01T22:40:19;2.5;;;1.9;;
53674;SDS011;39574;50.534;8.500;2022-08-01T22:45:22;2.5;;;1.9;;
53674;SDS011;39574;50.534;8.500;2022-08-01T22:50:20;2.7;;;2.0;;
53674;SDS011;39574;50.534;8.500;2022-08-01T22:55:18;2.8;;;1.9;;
53674;SDS011;39574;50.534;8.500;2022-08-01T23:00:18;2.4;;;1.8;;
53674;SDS011;39574;50.534;8.500;2022-08-01T23:05:18;2.5;;;1.8;;
53674;SDS011;39574;50.534;8.500;2022-08-01T23:10:17;2.4;;;1.9;;
53674;SDS011;39574;50.534;8.500;2022-08-01T23:15:16;2.5;;;1.9;;
53674;SDS011;39574;50.534;8.500;2022-08-01T23:20:16;2.5;;;1.9;;
53674;SDS011;39574;50.534;8.500;2022-08-01T23:25:15;2.6;;;1.9;;
53674;SDS011;39574;50.534;8.500;2022-08-01T23:30:14;2.7;;;2.0;;
53674;SDS011;39574;50.534;8.500;2022-08-01T23:35:14;2.6;;;1.9;;
53674;SDS011;39574;50.534;8.500;2022-08-01T23:40:14;2.7;;;2.0;;
53674;SDS011;39574;50.534;8.500;2022-08-01T23:45:13;2.6;;;1.9;;
53674;SDS011;39574;50.534;8.500;2022-08-01T23:50:12;3.0;;;1.8;;
53674;SDS011;39574;50.534;8.500;2022-08-01T23:55:12;2.7;;;1.8;;
